PWSweather.com
Personal Weather Stations
Station Observations
IROGLAN40
AalgaardNO 4330

AalgaardNO 4330

Lat: 58.773, Lon: 5.846

Elevation: 326

Station Type: Davis Vanatge Pro2

Latest ConditionsUpdated 10:40:02 PM GMT+01:01 Thursday, Nov 27, 2014
Currently Today's Max Today's Min Today's Average
Temperature 42.9°F6.1°C 45.2°F7.3°C 42.4°F5.8°C 43.4°F6.3°C
Dew Point 33.8°F1.0°C 36.9°F2.7°C 33.4°F0.8°C 35.1°F1.7°C
Winds 8.8 mph SE14.2 kmh SE 16.9 mph ESE27.2 kmh ESE - 9.8 mph 15.8 kmh
Wind Gusts 19.0 mph30.6 kmh 35.0 mph56.3 kmh - -
Humidity 70% 76% 67% 72%
Pressure 30.02 in1016.6 mb 30.04 in1017.3 mb 29.94 in1013.9 mb -
Hour Temp Dew Point Humidity Winds Wind Gusts Pressure Precip Precip Rate Daily Precip Total
10:40 PM 42.9°F6.1°C 33.8°F1.0°C 70% 8.8 mph SE14.2 kmh SE 19.0 mph30.6 kmh 30.02 in1016.6 mb 0.00 in0.0 mm 0.00 in/hr0.0 mm/hr 0.00 in0.0 mm
10:30 PM 42.9°F6.1°C 33.8°F1.0°C 70% 11.5 mph SE18.5 kmh SE 19.0 mph30.6 kmh 30.02 in1016.6 mb 0.00 in0.0 mm 0.00 in/hr0.0 mm/hr 0.00 in0.0 mm
10:20 PM 42.7°F5.9°C 33.6°F0.9°C 70% 14.6 mph SE23.5 kmh SE 23.0 mph37.0 kmh 30.01 in1016.3 mb 0.00 in0.0 mm 0.00 in/hr0.0 mm/hr 0.00 in0.0 mm
10:10 PM 42.7°F5.9°C 33.9°F1.1°C 71% 15.2 mph SE24.5 kmh SE 22.0 mph35.4 kmh 30.01 in1016.3 mb 0.00 in0.0 mm 0.00 in/hr0.0 mm/hr 0.00 in0.0 mm
10:00 PM 42.8°F6.0°C 34.0°F1.1°C 71% 9.4 mph SE15.1 kmh SE 15.0 mph24.1 kmh 30.01 in1016.3 mb 0.00 in0.0 mm 0.00 in/hr0.0 mm/hr 0.00 in0.0 mm
09:50 PM 42.8°F6.0°C 34.0°F1.1°C 71% 11.9 mph SE19.2 kmh SE 24.0 mph38.6 kmh 30.01 in1016.3 mb 0.00 in0.0 mm 0.00 in/hr0.0 mm/hr 0.00 in0.0 mm
09:40 PM 42.7°F5.9°C 33.9°F1.1°C 71% 11.0 mph SE17.7 kmh SE 19.0 mph30.6 kmh 30.01 in1016.3 mb 0.00 in0.0 mm 0.00 in/hr0.0 mm/hr 0.00 in0.0 mm
09:30 PM 42.6°F5.9°C 33.5°F0.8°C 70% 12.7 mph E20.4 kmh E 19.0 mph30.6 kmh 30.01 in1016.3 mb 0.00 in0.0 mm 0.00 in/hr0.0 mm/hr 0.00 in0.0 mm
09:20 PM 42.7°F5.9°C 33.9°F1.1°C 71% 11.7 mph SE18.8 kmh SE 15.0 mph24.1 kmh 30.00 in1015.9 mb 0.00 in0.0 mm 0.00 in/hr0.0 mm/hr 0.00 in0.0 mm
09:10 PM 42.6°F5.9°C 33.9°F1.1°C 71% 11.8 mph SE19.0 kmh SE 18.0 mph29.0 kmh 30.00 in1015.9 mb 0.00 in0.0 mm 0.00 in/hr0.0 mm/hr 0.00 in0.0 mm
09:00 PM 42.7°F5.9°C 33.9°F1.1°C 71% 9.7 mph E15.6 kmh E 15.0 mph24.1 kmh 29.99 in1015.6 mb 0.00 in0.0 mm 0.00 in/hr0.0 mm/hr 0.00 in0.0 mm
08:50 PM 42.7°F5.9°C 33.9°F1.1°C 71% 9.6 mph SE15.4 kmh SE 14.0 mph22.5 kmh 29.99 in1015.6 mb 0.00 in0.0 mm 0.00 in/hr0.0 mm/hr 0.00 in0.0 mm
08:40 PM 42.7°F5.9°C 33.9°F1.1°C 71% 10.0 mph SE16.1 kmh SE 17.0 mph27.4 kmh 29.99 in1015.6 mb 0.00 in0.0 mm 0.00 in/hr0.0 mm/hr 0.00 in0.0 mm
08:30 PM 42.7°F5.9°C 33.6°F0.9°C 70% 10.6 mph SE17.1 kmh SE 15.0 mph24.1 kmh 29.99 in1015.6 mb 0.00 in0.0 mm 0.00 in/hr0.0 mm/hr 0.00 in0.0 mm
08:20 PM 42.8°F6.0°C 33.7°F0.9°C 70% 11.9 mph SE19.2 kmh SE 21.0 mph33.8 kmh 29.99 in1015.6 mb 0.00 in0.0 mm 0.00 in/hr0.0 mm/hr 0.00 in0.0 mm
08:10 PM 42.7°F5.9°C 33.6°F0.9°C 70% 15.3 mph ESE24.6 kmh ESE 19.0 mph30.6 kmh 29.99 in1015.6 mb 0.00 in0.0 mm 0.00 in/hr0.0 mm/hr 0.00 in0.0 mm
08:00 PM 42.8°F6.0°C 33.7°F0.9°C 70% 12.2 mph SE19.6 kmh SE 21.0 mph33.8 kmh 29.99 in1015.6 mb 0.00 in0.0 mm 0.00 in/hr0.0 mm/hr 0.00 in0.0 mm
07:50 PM 42.9°F6.1°C 33.4°F0.8°C 69% 14.3 mph SE23.0 kmh SE 26.0 mph41.8 kmh 29.98 in1015.2 mb 0.00 in0.0 mm 0.00 in/hr0.0 mm/hr 0.00 in0.0 mm
07:40 PM 42.8°F6.0°C 33.7°F0.9°C 70% 16.9 mph ESE27.2 kmh ESE 35.0 mph56.3 kmh 29.98 in1015.2 mb 0.00 in0.0 mm 0.00 in/hr0.0 mm/hr 0.00 in0.0 mm
07:30 PM 42.8°F6.0°C 33.7°F0.9°C 70% 10.3 mph E16.6 kmh E 18.0 mph29.0 kmh 29.98 in1015.2 mb 0.00 in0.0 mm 0.00 in/hr0.0 mm/hr 0.00 in0.0 mm
07:20 PM 42.7°F5.9°C 33.9°F1.1°C 71% 12.5 mph SE20.1 kmh SE 17.0 mph27.4 kmh 29.98 in1015.2 mb 0.00 in0.0 mm 0.00 in/hr0.0 mm/hr 0.00 in0.0 mm
07:10 PM 42.7°F5.9°C 33.9°F1.1°C 71% 14.2 mph SE22.9 kmh SE 22.0 mph35.4 kmh 29.98 in1015.2 mb 0.00 in0.0 mm 0.00 in/hr0.0 mm/hr 0.00 in0.0 mm
07:00 PM 42.6°F5.9°C 33.9°F1.1°C 71% 10.3 mph SE16.6 kmh SE 16.0 mph25.7 kmh 29.97 in1014.9 mb 0.00 in0.0 mm 0.00 in/hr0.0 mm/hr 0.00 in0.0 mm
06:50 PM 42.5°F5.8°C 33.8°F1.0°C 71% 12.6 mph SE20.3 kmh SE 25.0 mph40.2 kmh 29.97 in1014.9 mb 0.00 in0.0 mm 0.00 in/hr0.0 mm/hr 0.00 in0.0 mm
06:40 PM 42.6°F5.9°C 33.9°F1.1°C 71% 13.9 mph ESE22.4 kmh ESE 21.0 mph33.8 kmh 29.98 in1015.2 mb 0.00 in0.0 mm 0.00 in/hr0.0 mm/hr 0.00 in0.0 mm
06:30 PM 42.6°F5.9°C 33.9°F1.1°C 71% 10.9 mph SE17.5 kmh SE 20.0 mph32.2 kmh 29.97 in1014.9 mb 0.00 in0.0 mm 0.00 in/hr0.0 mm/hr 0.00 in0.0 mm
06:20 PM 42.6°F5.9°C 33.9°F1.1°C 71% 7.8 mph SE12.6 kmh SE 10.0 mph16.1 kmh 29.98 in1015.2 mb 0.00 in0.0 mm 0.00 in/hr0.0 mm/hr 0.00 in0.0 mm
06:10 PM 42.5°F5.8°C 33.8°F1.0°C 71% 11.2 mph S18.0 kmh S 18.0 mph29.0 kmh 29.98 in1015.2 mb 0.00 in0.0 mm 0.00 in/hr0.0 mm/hr 0.00 in0.0 mm
06:00 PM 42.5°F5.8°C 33.8°F1.0°C 71% 5.6 mph SE9.0 kmh SE 17.0 mph27.4 kmh 29.97 in1014.9 mb 0.00 in0.0 mm 0.00 in/hr0.0 mm/hr 0.00 in0.0 mm
05:50 PM 42.6°F5.9°C 33.5°F0.8°C 70% 8.2 mph SE13.2 kmh SE 15.0 mph24.1 kmh 29.97 in1014.9 mb 0.00 in0.0 mm 0.00 in/hr0.0 mm/hr 0.00 in0.0 mm
05:40 PM 42.5°F5.8°C 33.4°F0.8°C 70% 11.1 mph SE17.9 kmh SE 17.0 mph27.4 kmh 29.97 in1014.9 mb 0.00 in0.0 mm 0.00 in/hr0.0 mm/hr 0.00 in0.0 mm
05:30 PM 42.5°F5.8°C 33.8°F1.0°C 71% 8.1 mph ESE13.0 kmh ESE 14.0 mph22.5 kmh 29.96 in1014.6 mb 0.00 in0.0 mm 0.00 in/hr0.0 mm/hr 0.00 in0.0 mm
05:20 PM 42.4°F5.8°C 33.7°F0.9°C 71% 9.8 mph SE15.8 kmh SE 15.0 mph24.1 kmh 29.96 in1014.6 mb 0.00 in0.0 mm 0.00 in/hr0.0 mm/hr 0.00 in0.0 mm
05:10 PM 42.4°F5.8°C 33.7°F0.9°C 71% 10.2 mph ESE16.4 kmh ESE 17.0 mph27.4 kmh 29.96 in1014.6 mb 0.00 in0.0 mm 0.00 in/hr0.0 mm/hr 0.00 in0.0 mm
05:00 PM 42.5°F5.8°C 33.8°F1.0°C 71% 8.6 mph SE13.8 kmh SE 14.0 mph22.5 kmh 29.96 in1014.6 mb 0.00 in0.0 mm 0.00 in/hr0.0 mm/hr 0.00 in0.0 mm
04:50 PM 42.5°F5.8°C 33.8°F1.0°C 71% 10.2 mph SE16.4 kmh SE 18.0 mph29.0 kmh 29.96 in1014.6 mb 0.00 in0.0 mm 0.00 in/hr0.0 mm/hr 0.00 in0.0 mm
04:40 PM 42.5°F5.8°C 34.1°F1.2°C 72% 13.9 mph SE22.4 kmh SE 26.0 mph41.8 kmh 29.96 in1014.6 mb 0.00 in0.0 mm 0.00 in/hr0.0 mm/hr 0.00 in0.0 mm
04:30 PM 42.6°F5.9°C 34.2°F1.2°C 72% 9.6 mph SE15.4 kmh SE 16.0 mph25.7 kmh 29.95 in1014.2 mb 0.00 in0.0 mm 0.00 in/hr0.0 mm/hr 0.00 in0.0 mm
04:20 PM 42.6°F5.9°C 34.2°F1.2°C 72% 12.9 mph SE20.8 kmh SE 22.0 mph35.4 kmh 29.96 in1014.6 mb 0.00 in0.0 mm 0.00 in/hr0.0 mm/hr 0.00 in0.0 mm
04:10 PM 42.7°F5.9°C 33.9°F1.1°C 71% 7.2 mph SE11.6 kmh SE 17.0 mph27.4 kmh 29.96 in1014.6 mb 0.00 in0.0 mm 0.00 in/hr0.0 mm/hr 0.00 in0.0 mm
04:00 PM 42.8°F6.0°C 34.0°F1.1°C 71% 10.6 mph SE17.1 kmh SE 18.0 mph29.0 kmh 29.96 in1014.6 mb 0.00 in0.0 mm 0.00 in/hr0.0 mm/hr 0.00 in0.0 mm
03:50 PM 42.9°F6.1°C 34.1°F1.2°C 71% 6.3 mph SE10.1 kmh SE 9.0 mph14.5 kmh 29.96 in1014.6 mb 0.00 in0.0 mm 0.00 in/hr0.0 mm/hr 0.00 in0.0 mm
03:40 PM 43.1°F6.2°C 34.0°F1.1°C 70% 5.6 mph ENE9.0 kmh ENE 11.0 mph17.7 kmh 29.96 in1014.6 mb 0.00 in0.0 mm 0.00 in/hr0.0 mm/hr 0.00 in0.0 mm
03:30 PM 43.3°F6.3°C 34.2°F1.2°C 70% 4.7 mph E7.6 kmh E 9.0 mph14.5 kmh 29.96 in1014.6 mb 0.00 in0.0 mm 0.00 in/hr0.0 mm/hr 0.00 in0.0 mm
03:20 PM 43.4°F6.3°C 34.3°F1.3°C 70% 8.9 mph ESE14.3 kmh ESE 16.0 mph25.7 kmh 29.95 in1014.2 mb 0.00 in0.0 mm 0.00 in/hr0.0 mm/hr 0.00 in0.0 mm
03:10 PM 43.5°F6.4°C 34.4°F1.3°C 70% 10.2 mph SE16.4 kmh SE 15.0 mph24.1 kmh 29.95 in1014.2 mb 0.00 in0.0 mm 0.00 in/hr0.0 mm/hr 0.00 in0.0 mm
03:00 PM 43.5°F6.4°C 34.3°F1.3°C 70% 9.9 mph SE15.9 kmh SE 16.0 mph25.7 kmh 29.95 in1014.2 mb 0.00 in0.0 mm 0.00 in/hr0.0 mm/hr 0.00 in0.0 mm
02:50 PM 43.5°F6.4°C 34.4°F1.3°C 70% 10.6 mph E17.1 kmh E 19.0 mph30.6 kmh 29.94 in1013.9 mb 0.00 in0.0 mm 0.00 in/hr0.0 mm/hr 0.00 in0.0 mm
02:40 PM 43.6°F6.4°C 34.5°F1.4°C 70% 14.1 mph ENE22.7 kmh ENE 22.0 mph35.4 kmh 29.95 in1014.2 mb 0.00 in0.0 mm 0.00 in/hr0.0 mm/hr 0.00 in0.0 mm
02:30 PM 43.8°F6.6°C 34.3°F1.3°C 69% 13.4 mph SE21.6 kmh SE 21.0 mph33.8 kmh 29.95 in1014.2 mb 0.00 in0.0 mm 0.00 in/hr0.0 mm/hr 0.00 in0.0 mm
02:20 PM 44.0°F6.7°C 34.5°F1.4°C 69% 9.3 mph SE15.0 kmh SE 13.0 mph20.9 kmh 29.95 in1014.2 mb 0.00 in0.0 mm 0.00 in/hr0.0 mm/hr 0.00 in0.0 mm
02:10 PM 44.5°F6.9°C 34.2°F1.2°C 67% 11.4 mph SE18.3 kmh SE 22.0 mph35.4 kmh 29.95 in1014.2 mb 0.00 in0.0 mm 0.00 in/hr0.0 mm/hr 0.00 in0.0 mm
02:00 PM 44.9°F7.2°C 34.6°F1.4°C 67% 11.6 mph ESE18.7 kmh ESE 17.0 mph27.4 kmh 29.95 in1014.2 mb 0.00 in0.0 mm 0.00 in/hr0.0 mm/hr 0.00 in0.0 mm
01:50 PM 45.2°F7.3°C 34.9°F1.6°C 67% 11.2 mph SE18.0 kmh SE 18.0 mph29.0 kmh 29.96 in1014.6 mb 0.00 in0.0 mm 0.00 in/hr0.0 mm/hr 0.00 in0.0 mm
01:40 PM 44.7°F7.1°C 34.8°F1.6°C 68% 10.1 mph E16.3 kmh E 17.0 mph27.4 kmh 29.96 in1014.6 mb 0.00 in0.0 mm 0.00 in/hr0.0 mm/hr 0.00 in0.0 mm
01:30 PM 44.5°F6.9°C 34.6°F1.4°C 68% 9.8 mph SE15.8 kmh SE 18.0 mph29.0 kmh 29.96 in1014.6 mb 0.00 in0.0 mm 0.00 in/hr0.0 mm/hr 0.00 in0.0 mm
01:20 PM 44.7°F7.1°C 34.8°F1.6°C 68% 12.6 mph SE20.3 kmh SE 24.0 mph38.6 kmh 29.97 in1014.9 mb 0.00 in0.0 mm 0.00 in/hr0.0 mm/hr 0.00 in0.0 mm
01:10 PM 44.9°F7.2°C 35.0°F1.7°C 68% 11.4 mph SE18.3 kmh SE 21.0 mph33.8 kmh 29.98 in1015.2 mb 0.00 in0.0 mm 0.00 in/hr0.0 mm/hr 0.00 in0.0 mm
01:00 PM 44.9°F7.2°C 35.4°F1.9°C 69% 10.6 mph SE17.1 kmh SE 22.0 mph35.4 kmh 29.98 in1015.2 mb 0.00 in0.0 mm 0.00 in/hr0.0 mm/hr 0.00 in0.0 mm
12:50 PM 44.8°F7.1°C 35.2°F1.8°C 69% 8.4 mph ESE13.5 kmh ESE 17.0 mph27.4 kmh 29.98 in1015.2 mb 0.00 in0.0 mm 0.00 in/hr0.0 mm/hr 0.00 in0.0 mm
12:40 PM 44.9°F7.2°C 35.0°F1.7°C 68% 12.6 mph SE20.3 kmh SE 16.0 mph25.7 kmh 29.98 in1015.2 mb 0.00 in0.0 mm 0.00 in/hr0.0 mm/hr 0.00 in0.0 mm
12:30 PM 45.0°F7.2°C 35.1°F1.7°C 68% 9.8 mph SE15.8 kmh SE 12.0 mph19.3 kmh 29.98 in1015.2 mb 0.00 in0.0 mm 0.00 in/hr0.0 mm/hr 0.00 in0.0 mm
12:20 PM 45.1°F7.3°C 35.2°F1.8°C 68% 10.7 mph SE17.2 kmh SE 18.0 mph29.0 kmh 29.98 in1015.2 mb 0.00 in0.0 mm 0.00 in/hr0.0 mm/hr 0.00 in0.0 mm
12:10 PM 44.7°F7.1°C 35.1°F1.7°C 69% 13.3 mph SE21.4 kmh SE 23.0 mph37.0 kmh 29.98 in1015.2 mb 0.00 in0.0 mm 0.00 in/hr0.0 mm/hr 0.00 in0.0 mm
12:00 PM 44.3°F6.8°C 35.5°F1.9°C 71% 7.5 mph SE12.1 kmh SE 12.0 mph19.3 kmh 29.99 in1015.6 mb 0.00 in0.0 mm 0.00 in/hr0.0 mm/hr 0.00 in0.0 mm
11:50 AM 44.4°F6.9°C 35.9°F2.2°C 72% 11.2 mph SSE18.0 kmh SSE 22.0 mph35.4 kmh 29.99 in1015.6 mb 0.00 in0.0 mm 0.00 in/hr0.0 mm/hr 0.00 in0.0 mm
11:40 AM 44.5°F6.9°C 35.7°F2.1°C 71% 8.8 mph SE14.2 kmh SE 15.0 mph24.1 kmh 29.99 in1015.6 mb 0.00 in0.0 mm 0.00 in/hr0.0 mm/hr 0.00 in0.0 mm
11:30 AM 44.7°F7.1°C 35.9°F2.2°C 71% 10.0 mph SE16.1 kmh SE 13.0 mph20.9 kmh 29.99 in1015.6 mb 0.00 in0.0 mm 0.00 in/hr0.0 mm/hr 0.00 in0.0 mm
11:20 AM 44.6°F7.0°C 35.7°F2.1°C 71% 13.7 mph ESE22.0 kmh ESE 20.0 mph32.2 kmh 29.99 in1015.6 mb 0.00 in0.0 mm 0.00 in/hr0.0 mm/hr 0.00 in0.0 mm
11:10 AM 44.7°F7.1°C 35.9°F2.2°C 71% 11.9 mph E19.2 kmh E 15.0 mph24.1 kmh 29.99 in1015.6 mb 0.00 in0.0 mm 0.00 in/hr0.0 mm/hr 0.00 in0.0 mm
11:00 AM 44.8°F7.1°C 36.3°F2.4°C 72% 13.3 mph SE21.4 kmh SE 24.0 mph38.6 kmh 29.98 in1015.2 mb 0.00 in0.0 mm 0.00 in/hr0.0 mm/hr 0.00 in0.0 mm
10:50 AM 44.6°F7.0°C 36.5°F2.5°C 73% 13.5 mph SE21.7 kmh SE 22.0 mph35.4 kmh 29.98 in1015.2 mb 0.00 in0.0 mm 0.00 in/hr0.0 mm/hr 0.00 in0.0 mm
10:40 AM 44.5°F6.9°C 36.4°F2.4°C 73% 10.3 mph E16.6 kmh E 17.0 mph27.4 kmh 29.98 in1015.2 mb 0.00 in0.0 mm 0.00 in/hr0.0 mm/hr 0.00 in0.0 mm
10:30 AM 44.9°F7.2°C 36.4°F2.4°C 72% 6.1 mph SE9.8 kmh SE 10.0 mph16.1 kmh 29.98 in1015.2 mb 0.00 in0.0 mm 0.00 in/hr0.0 mm/hr 0.00 in0.0 mm
10:20 AM 45.0°F7.2°C 36.9°F2.7°C 73% 9.6 mph ESE15.4 kmh ESE 15.0 mph24.1 kmh 29.98 in1015.2 mb 0.00 in0.0 mm 0.00 in/hr0.0 mm/hr 0.00 in0.0 mm
10:10 AM 44.7°F7.1°C 36.6°F2.6°C 73% 10.6 mph SE17.1 kmh SE 18.0 mph29.0 kmh 29.98 in1015.2 mb 0.00 in0.0 mm 0.00 in/hr0.0 mm/hr 0.00 in0.0 mm
10:00 AM 44.5°F6.9°C 36.4°F2.4°C 73% 10.6 mph ESE17.1 kmh ESE 17.0 mph27.4 kmh 29.97 in1014.9 mb 0.00 in0.0 mm 0.00 in/hr0.0 mm/hr 0.00 in0.0 mm
09:50 AM 44.1°F6.7°C 36.3°F2.4°C 74% 11.4 mph SE18.3 kmh SE 17.0 mph27.4 kmh 29.97 in1014.9 mb 0.00 in0.0 mm 0.00 in/hr0.0 mm/hr 0.00 in0.0 mm
09:40 AM 44.0°F6.7°C 36.2°F2.3°C 74% 10.9 mph SE17.5 kmh SE 16.0 mph25.7 kmh 29.97 in1014.9 mb 0.00 in0.0 mm 0.00 in/hr0.0 mm/hr 0.00 in0.0 mm
09:30 AM 43.8°F6.6°C 36.1°F2.3°C 74% 9.6 mph SE15.4 kmh SE 17.0 mph27.4 kmh 29.97 in1014.9 mb 0.00 in0.0 mm 0.00 in/hr0.0 mm/hr 0.00 in0.0 mm
09:20 AM 44.0°F6.7°C 35.9°F2.2°C 73% 12.9 mph SE20.8 kmh SE 23.0 mph37.0 kmh 29.97 in1014.9 mb 0.00 in0.0 mm 0.00 in/hr0.0 mm/hr 0.00 in0.0 mm
09:10 AM 43.8°F6.6°C 36.0°F2.2°C 74% 9.7 mph SE15.6 kmh SE 22.0 mph35.4 kmh 29.98 in1015.2 mb 0.00 in0.0 mm 0.00 in/hr0.0 mm/hr 0.00 in0.0 mm
09:00 AM 43.7°F6.5°C 36.0°F2.2°C 74% 9.1 mph SE14.6 kmh SE 11.0 mph17.7 kmh 29.98 in1015.2 mb 0.00 in0.0 mm 0.00 in/hr0.0 mm/hr 0.00 in0.0 mm
08:50 AM 43.6°F6.4°C 35.9°F2.2°C 74% 7.4 mph SE11.9 kmh SE 15.0 mph24.1 kmh 29.98 in1015.2 mb 0.00 in0.0 mm 0.00 in/hr0.0 mm/hr 0.00 in0.0 mm
08:40 AM 43.7°F6.5°C 35.9°F2.2°C 74% 8.8 mph ESE14.2 kmh ESE 17.0 mph27.4 kmh 29.98 in1015.2 mb 0.00 in0.0 mm 0.00 in/hr0.0 mm/hr 0.00 in0.0 mm
08:30 AM 43.5°F6.4°C 35.8°F2.1°C 74% 10.0 mph SE16.1 kmh SE 15.0 mph24.1 kmh 29.97 in1014.9 mb 0.00 in0.0 mm 0.00 in/hr0.0 mm/hr 0.00 in0.0 mm
08:20 AM 43.5°F6.4°C 35.8°F2.1°C 74% 6.5 mph ESE10.5 kmh ESE 14.0 mph22.5 kmh 29.97 in1014.9 mb 0.00 in0.0 mm 0.00 in/hr0.0 mm/hr 0.00 in0.0 mm
08:10 AM 43.5°F6.4°C 35.8°F2.1°C 74% 7.7 mph SE12.4 kmh SE 10.0 mph16.1 kmh 29.97 in1014.9 mb 0.00 in0.0 mm 0.00 in/hr0.0 mm/hr 0.00 in0.0 mm
08:00 AM 43.6°F6.4°C 35.9°F2.2°C 74% 8.7 mph SE14.0 kmh SE 14.0 mph22.5 kmh 29.97 in1014.9 mb 0.00 in0.0 mm 0.00 in/hr0.0 mm/hr 0.00 in0.0 mm
07:50 AM 43.6°F6.4°C 35.9°F2.2°C 74% 8.5 mph SSE13.7 kmh SSE 13.0 mph20.9 kmh 29.97 in1014.9 mb 0.00 in0.0 mm 0.00 in/hr0.0 mm/hr 0.00 in0.0 mm
07:40 AM 43.6°F6.4°C 35.9°F2.2°C 74% 9.2 mph ESE14.8 kmh ESE 15.0 mph24.1 kmh 29.97 in1014.9 mb 0.00 in0.0 mm 0.00 in/hr0.0 mm/hr 0.00 in0.0 mm
07:30 AM 43.6°F6.4°C 35.9°F2.2°C 74% 7.0 mph ESE11.3 kmh ESE 11.0 mph17.7 kmh 29.97 in1014.9 mb 0.00 in0.0 mm 0.00 in/hr0.0 mm/hr 0.00 in0.0 mm
07:20 AM 43.6°F6.4°C 35.9°F2.2°C 74% 9.0 mph SE14.5 kmh SE 12.0 mph19.3 kmh 29.97 in1014.9 mb 0.00 in0.0 mm 0.00 in/hr0.0 mm/hr 0.00 in0.0 mm
07:10 AM 43.4°F6.3°C 36.0°F2.2°C 75% 9.4 mph ESE15.1 kmh ESE 17.0 mph27.4 kmh 29.97 in1014.9 mb 0.00 in0.0 mm 0.00 in/hr0.0 mm/hr 0.00 in0.0 mm
07:00 AM 43.4°F6.3°C 36.0°F2.2°C 75% 9.6 mph ESE15.4 kmh ESE 18.0 mph29.0 kmh 29.97 in1014.9 mb 0.00 in0.0 mm 0.00 in/hr0.0 mm/hr 0.00 in0.0 mm
06:50 AM 43.3°F6.3°C 35.9°F2.2°C 75% 9.7 mph SE15.6 kmh SE 21.0 mph33.8 kmh 29.97 in1014.9 mb 0.00 in0.0 mm 0.00 in/hr0.0 mm/hr 0.00 in0.0 mm
06:40 AM 43.2°F6.2°C 36.1°F2.3°C 76% 7.2 mph ESE11.6 kmh ESE 11.0 mph17.7 kmh 29.97 in1014.9 mb 0.00 in0.0 mm 0.00 in/hr0.0 mm/hr 0.00 in0.0 mm
06:30 AM 43.1°F6.2°C 36.0°F2.2°C 76% 10.3 mph SE16.6 kmh SE 13.0 mph20.9 kmh 29.98 in1015.2 mb 0.00 in0.0 mm 0.00 in/hr0.0 mm/hr 0.00 in0.0 mm
06:20 AM 43.1°F6.2°C 36.0°F2.2°C 76% 8.9 mph SE14.3 kmh SE 17.0 mph27.4 kmh 29.98 in1015.2 mb 0.00 in0.0 mm 0.00 in/hr0.0 mm/hr 0.00 in0.0 mm
06:10 AM 43.1°F6.2°C 36.0°F2.2°C 76% 8.6 mph ESE13.8 kmh ESE 11.0 mph17.7 kmh 29.98 in1015.2 mb 0.00 in0.0 mm 0.00 in/hr0.0 mm/hr 0.00 in0.0 mm
06:00 AM 43.1°F6.2°C 36.0°F2.2°C 76% 7.9 mph ESE12.7 kmh ESE 14.0 mph22.5 kmh 29.98 in1015.2 mb 0.00 in0.0 mm 0.00 in/hr0.0 mm/hr 0.00 in0.0 mm
05:50 AM 42.9°F6.1°C 35.9°F2.2°C 76% 8.6 mph ESE13.8 kmh ESE 14.0 mph22.5 kmh 29.98 in1015.2 mb 0.00 in0.0 mm 0.00 in/hr0.0 mm/hr 0.00 in0.0 mm
05:40 AM 42.9°F6.1°C 35.9°F2.2°C 76% 6.6 mph SE10.6 kmh SE 10.0 mph16.1 kmh 29.98 in1015.2 mb 0.00 in0.0 mm 0.00 in/hr0.0 mm/hr 0.00 in0.0 mm
05:30 AM 43.1°F6.2°C 35.7°F2.1°C 75% 8.8 mph SE14.2 kmh SE 10.0 mph16.1 kmh 29.98 in1015.2 mb 0.00 in0.0 mm 0.00 in/hr0.0 mm/hr 0.00 in0.0 mm
05:20 AM 43.1°F6.2°C 35.7°F2.1°C 75% 9.1 mph SE14.6 kmh SE 14.0 mph22.5 kmh 29.98 in1015.2 mb 0.00 in0.0 mm 0.00 in/hr0.0 mm/hr 0.00 in0.0 mm
05:10 AM 43.1°F6.2°C 35.7°F2.1°C 75% 8.8 mph SE14.2 kmh SE 13.0 mph20.9 kmh 29.98 in1015.2 mb 0.00 in0.0 mm 0.00 in/hr0.0 mm/hr 0.00 in0.0 mm
05:00 AM 43.1°F6.2°C 35.7°F2.1°C 75% 6.4 mph SE10.3 kmh SE 9.0 mph14.5 kmh 29.98 in1015.2 mb 0.00 in0.0 mm 0.00 in/hr0.0 mm/hr 0.00 in0.0 mm
04:50 AM 43.2°F6.2°C 35.8°F2.1°C 75% 10.9 mph SE17.5 kmh SE 14.0 mph22.5 kmh 29.98 in1015.2 mb 0.00 in0.0 mm 0.00 in/hr0.0 mm/hr 0.00 in0.0 mm
04:40 AM 43.3°F6.3°C 35.9°F2.2°C 75% 6.8 mph SE10.9 kmh SE 10.0 mph16.1 kmh 29.99 in1015.6 mb 0.00 in0.0 mm 0.00 in/hr0.0 mm/hr 0.00 in0.0 mm
04:30 AM 43.3°F6.3°C 35.9°F2.2°C 75% 11.5 mph SE18.5 kmh SE 18.0 mph29.0 kmh 29.99 in1015.6 mb 0.00 in0.0 mm 0.00 in/hr0.0 mm/hr 0.00 in0.0 mm
04:20 AM 43.3°F6.3°C 35.9°F2.2°C 75% 10.2 mph SE16.4 kmh SE 15.0 mph24.1 kmh 30.00 in1015.9 mb 0.00 in0.0 mm 0.00 in/hr0.0 mm/hr 0.00 in0.0 mm
04:10 AM 43.3°F6.3°C 35.9°F2.2°C 75% 8.4 mph SE13.5 kmh SE 13.0 mph20.9 kmh 30.00 in1015.9 mb 0.00 in0.0 mm 0.00 in/hr0.0 mm/hr 0.00 in0.0 mm
04:00 AM 43.3°F6.3°C 35.9°F2.2°C 75% 8.5 mph SE13.7 kmh SE 14.0 mph22.5 kmh 30.00 in1015.9 mb 0.00 in0.0 mm 0.00 in/hr0.0 mm/hr 0.00 in0.0 mm
03:50 AM 43.3°F6.3°C 35.9°F2.2°C 75% 7.9 mph SSE12.7 kmh SSE 16.0 mph25.7 kmh 30.01 in1016.3 mb 0.00 in0.0 mm 0.00 in/hr0.0 mm/hr 0.00 in0.0 mm
03:40 AM 43.3°F6.3°C 35.9°F2.2°C 75% 6.9 mph SE11.1 kmh SE 9.0 mph14.5 kmh 30.01 in1016.3 mb 0.00 in0.0 mm 0.00 in/hr0.0 mm/hr 0.00 in0.0 mm
03:30 AM 43.4°F6.3°C 36.0°F2.2°C 75% 5.7 mph SE9.2 kmh SE 15.0 mph24.1 kmh 30.01 in1016.3 mb 0.00 in0.0 mm 0.00 in/hr0.0 mm/hr 0.00 in0.0 mm
03:20 AM 43.5°F6.4°C 36.1°F2.3°C 75% 6.3 mph SE10.1 kmh SE 9.0 mph14.5 kmh 30.01 in1016.3 mb 0.00 in0.0 mm 0.00 in/hr0.0 mm/hr 0.00 in0.0 mm
03:10 AM 43.5°F6.4°C 36.1°F2.3°C 75% 6.2 mph SE10.0 kmh SE 11.0 mph17.7 kmh 30.01 in1016.3 mb 0.00 in0.0 mm 0.00 in/hr0.0 mm/hr 0.00 in0.0 mm
03:00 AM 43.4°F6.3°C 35.7°F2.1°C 74% 4.6 mph SE7.4 kmh SE 9.0 mph14.5 kmh 30.01 in1016.3 mb 0.00 in0.0 mm 0.00 in/hr0.0 mm/hr 0.00 in0.0 mm
02:50 AM 43.5°F6.4°C 35.7°F2.1°C 74% 7.7 mph ESE12.4 kmh ESE 13.0 mph20.9 kmh 30.01 in1016.3 mb 0.00 in0.0 mm 0.00 in/hr0.0 mm/hr 0.00 in0.0 mm
02:40 AM 43.5°F6.4°C 35.8°F2.1°C 74% 8.1 mph SE13.0 kmh SE 13.0 mph20.9 kmh 30.01 in1016.3 mb 0.00 in0.0 mm 0.00 in/hr0.0 mm/hr 0.00 in0.0 mm
02:30 AM 43.6°F6.4°C 35.8°F2.1°C 74% 7.0 mph ESE11.3 kmh ESE 13.0 mph20.9 kmh 30.01 in1016.3 mb 0.00 in0.0 mm 0.00 in/hr0.0 mm/hr 0.00 in0.0 mm
02:20 AM 43.6°F6.4°C 35.9°F2.2°C 74% 6.2 mph SE10.0 kmh SE 9.0 mph14.5 kmh 30.01 in1016.3 mb 0.00 in0.0 mm 0.00 in/hr0.0 mm/hr 0.00 in0.0 mm
02:10 AM 43.6°F6.4°C 35.8°F2.1°C 74% 8.3 mph SE13.4 kmh SE 19.0 mph30.6 kmh 30.01 in1016.3 mb 0.00 in0.0 mm 0.00 in/hr0.0 mm/hr 0.00 in0.0 mm
02:00 AM 43.6°F6.4°C 35.8°F2.1°C 74% 6.2 mph SE10.0 kmh SE 10.0 mph16.1 kmh 30.01 in1016.3 mb 0.00 in0.0 mm 0.00 in/hr0.0 mm/hr 0.00 in0.0 mm
01:50 AM 43.6°F6.4°C 35.9°F2.2°C 74% 9.3 mph SE15.0 kmh SE 12.0 mph19.3 kmh 30.01 in1016.3 mb 0.00 in0.0 mm 0.00 in/hr0.0 mm/hr 0.00 in0.0 mm
01:40 AM 43.6°F6.4°C 35.9°F2.2°C 74% 8.6 mph ESE13.8 kmh ESE 15.0 mph24.1 kmh 30.02 in1016.6 mb 0.00 in0.0 mm 0.00 in/hr0.0 mm/hr 0.00 in0.0 mm
01:30 AM 43.6°F6.4°C 35.9°F2.2°C 74% 6.9 mph SE11.1 kmh SE 14.0 mph22.5 kmh 30.02 in1016.6 mb 0.00 in0.0 mm 0.00 in/hr0.0 mm/hr 0.00 in0.0 mm
01:20 AM 43.4°F6.3°C 35.7°F2.1°C 74% 8.9 mph SE14.3 kmh SE 17.0 mph27.4 kmh 30.02 in1016.6 mb 0.00 in0.0 mm 0.00 in/hr0.0 mm/hr 0.00 in0.0 mm
01:10 AM 43.3°F6.3°C 35.9°F2.2°C 75% 9.1 mph SE14.6 kmh SE 17.0 mph27.4 kmh 30.02 in1016.6 mb 0.00 in0.0 mm 0.00 in/hr0.0 mm/hr 0.00 in0.0 mm
01:00 AM 43.2°F6.2°C 35.8°F2.1°C 75% 8.3 mph SE13.4 kmh SE 18.0 mph29.0 kmh 30.02 in1016.6 mb 0.00 in0.0 mm 0.00 in/hr0.0 mm/hr 0.00 in0.0 mm
12:50 AM 43.2°F6.2°C 35.8°F2.1°C 75% 11.2 mph SE18.0 kmh SE 19.0 mph30.6 kmh 30.03 in1016.9 mb 0.00 in0.0 mm 0.00 in/hr0.0 mm/hr 0.00 in0.0 mm
12:40 AM 43.2°F6.2°C 35.8°F2.1°C 75% 7.5 mph ESE12.1 kmh ESE 11.0 mph17.7 kmh 30.03 in1016.9 mb 0.00 in0.0 mm 0.00 in/hr0.0 mm/hr 0.00 in0.0 mm
12:30 AM 43.3°F6.3°C 35.9°F2.2°C 75% 9.5 mph SE15.3 kmh SE 14.0 mph22.5 kmh 30.03 in1016.9 mb 0.00 in0.0 mm 0.00 in/hr0.0 mm/hr 0.00 in0.0 mm
12:20 AM 43.3°F6.3°C 35.9°F2.2°C 75% 7.8 mph SE12.6 kmh SE 13.0 mph20.9 kmh 30.04 in1017.3 mb 0.00 in0.0 mm 0.00 in/hr0.0 mm/hr 0.00 in0.0 mm
12:10 AM 43.3°F6.3°C 35.9°F2.2°C 75% 6.4 mph ESE10.3 kmh ESE 11.0 mph17.7 kmh 30.04 in1017.3 mb 0.00 in0.0 mm 0.00 in/hr0.0 mm/hr 0.00 in0.0 mm
12:00 AM 43.3°F6.3°C 35.9°F2.2°C 75% 11.3 mph SE18.2 kmh SE 18.0 mph29.0 kmh 30.04 in1017.3 mb 0.00 in0.0 mm 0.00 in/hr0.0 mm/hr 0.00 in0.0 mm